Cortland, Illinois
Current Conditions -  °F | °C
As of 11:15 AM on Saturday 20 Dec 2014 (Local Time) from KDKB Reporting Station
Haze Haze  
Wind Chill: 22°   Ceiling: 3600
Heat Index: 28°   Visibility: 5mi
Dew Point: 24°   Wind: 5mph
Humidity: 88%   Direction: 190°S
Pressure: 30.27"   Gusts: NA
Location:  41.92°N, 88.69°W
Report Text: KDKB 201715Z AUTO 19004KT 5SM BR BKN036 OVC050 M02/M04 A3027 RMK AO2 T10251042
Loading
Personal Weather Stations






























Interactive Weather Map New forecast layout! Learn more

10-Day Weather Forecast

Advertisements
Track Severe Weather on mobile